Willard, Colorado
Current Conditions -  °F | °C
As of 7:35 AM on Monday 20 Oct 2014 (Local Time) from KSTK Reporting Station
Clear Clear  
Wind Chill: 32°   Ceiling: Unl
Heat Index: 36°   Visibility: 10mi
Dew Point: 36°   Wind: 5mph
Humidity: 100%   Direction: 200°SSW
Pressure: 30.14"   Gusts: NA
Location:  40.5426°N, 103.449°W
Report Text: KSTK 201335Z AUTO 20004KT 10SM CLR 02/02 A3014 RMK AO2
Loading
Personal Weather Stations






























Interactive Weather Map
Tropical Storm Tracking
New forecast layout! Learn more

10-Day Weather Forecast

Advertisements
Track Severe Weather on mobile